Flight Track Log - Related Links

Times and Time Zones

All times are in EDT time to prevent confusion due to time zone crossing. See the AMF1019 flight status page for this flight to view local times or setup timezone preferences in your user account.

Time Position Orientation Groundspeed Altitude Reporting Facility
EDT Latitude Longitude Course Direction KTS MPH feet Rate Location/Type
Wed 09:43:50 PM 37.5328 -77.3333 247° West 168 193 1,400  Level Washington Center
Wed 09:44:50 PM 37.5528 -77.3889 294° West 176 203 3,200 1,800 Climbing Washington Center
Wed 09:45:50 PM 37.5644 -77.4494 284° West 170 196 5,000 1,750 Climbing Washington Center
Wed 09:46:50 PM 37.5781 -77.5100 286° West 175 201 6,700 1,686 Climbing Washington Center
Wed 09:47:51 PM 37.5917 -77.5758 285° West 185 213 8,400 1,650 Climbing Washington Center
Wed 09:48:50 PM 37.6031 -77.6364 283° West 185 213 10,000 1,513 Climbing Washington Center
Wed 09:49:00 PM 37.5860 -77.6501 247° West  Level Estimated
Wed 09:49:50 PM 37.6208 -77.7025 289° West 185 213 11,400  Level Washington Center
Wed 09:50:51 PM 37.6342 -77.7711 284° West 185 213 12,900 1,525 Climbing Washington Center
Wed 09:51:52 PM 37.6475 -77.8422 283° West 197 227 14,500 1,563 Climbing Washington Center
Wed 09:52:50 PM 37.6628 -77.9108 286° West 203 234 16,000 1,361 Climbing Washington Center
Wed 09:53:51 PM 37.6739 -77.9794 282° West 203 234 17,200 1,279 Climbing Washington Center
Wed 09:54:52 PM 37.6894 -78.0456 287° West 203 234 18,600 1,200 Climbing Washington Center
Wed 09:55:51 PM 37.7025 -78.1142 284° West 203 234 19,600 700 Climbing Washington Center
Wed 09:56:52 PM 37.7236 -78.1989 288° West 213 245 20,000 202 Climbing Washington Center
Wed 09:57:50 PM 37.7425 -78.2861 285° West 235 270 20,000  Level Washington Center
Wed 09:58:50 PM 37.7553 -78.3733 281° West 249 287 20,000  Level Washington Center
Wed 09:59:51 PM 37.7742 -78.4528 287° West 257 296 20,000  Level Washington Center
Wed 10:00:51 PM 37.7928 -78.5428 285° West 262 302 20,000  Level Washington Center
Wed 10:01:50 PM 37.8094 -78.6303 284° West 262 302 20,000  Level Washington Center
Wed 10:02:51 PM 37.8297 -78.7311 284° West 262 302 20,000  Level Washington Center
Wed 10:03:51 PM 37.8461 -78.8211 283° West 262 302 20,000  Level Washington Center
Wed 10:04:49 PM 37.8644 -78.9139 284° West 262 302 20,000  Level Washington Center
Wed 10:05:51 PM 37.8828 -79.0042 284° West 262 302 20,000  Level Washington Center
Wed 10:06:51 PM 37.8969 -79.0892 282° West 262 302 20,000  Level Washington Center
Wed 10:07:52 PM 37.9172 -79.1822 285° West 262 302 20,000  Level Washington Center
Wed 10:08:49 PM 37.9311 -79.2750 281° West 267 307 20,000  Level Washington Center
Wed 10:09:50 PM 37.9489 -79.3761 283° West 267 307 20,000  Level Washington Center
Wed 10:10:52 PM 37.9667 -79.4692 284° West 267 307 20,000  Level Washington Center
Wed 10:11:50 PM 37.9803 -79.5619 281° West 267 307 20,000  Level Washington Center
Wed 10:12:50 PM 37.9967 -79.6392 285° West 267 307 20,000  Level Washington Center
Wed 10:13:50 PM 38.0122 -79.7297 282° West 262 302 20,000  Level Washington Center
Wed 10:14:50 PM 38.0239 -79.8175 280° West 257 296 20,000  Level Washington Center
Wed 10:15:50 PM 38.0433 -79.9161 284° West 263 303 20,000  Level Washington Center
Wed 10:16:52 PM 38.0586 -80.0092 282° West 263 303 20,000  Level Washington Center
Wed 10:17:50 PM 38.0739 -80.0997 282° West 263 303 20,000  Level Washington Center
Wed 10:19:45 PM 38.1003 -80.2583 282° West 266 306 20,000  Level Indianapolis Center
Wed 10:20:46 PM 38.1169 -80.3511 283° West 269 310 20,000  Level Indianapolis Center
Wed 10:21:47 PM 38.1308 -80.4444 281° West 270 311 20,000  Level Indianapolis Center
Wed 10:22:48 PM 38.1517 -80.5561 283° West 271 312 20,000  Level Indianapolis Center
Wed 10:23:49 PM 38.1692 -80.6478 284° West 268 308 20,000  Level Indianapolis Center
Wed 10:24:50 PM 38.1831 -80.7417 281° West 268 308 20,000  Level Indianapolis Center
Wed 10:25:51 PM 38.1981 -80.8356 282° West 269 310 20,000  Level Indianapolis Center
Wed 10:26:52 PM 38.2239 -80.9258 290° West 271 312 20,000  Level Indianapolis Center
Wed 10:27:54 PM 38.2458 -81.0181 287° West 273 314 20,000  Level Indianapolis Center
Wed 10:28:55 PM 38.2628 -81.1122 283° West 274 315 20,000  Level Indianapolis Center
Wed 10:29:56 PM 38.2861 -81.2036 288° West 274 315 20,000  Level Indianapolis Center
Wed 10:30:57 PM 38.3078 -81.2975 286° West 275 316 20,000  Level Indianapolis Center
Wed 10:31:58 PM 38.3261 -81.3906 284° West 269 310 20,000  Level Indianapolis Center
Wed 10:33:00 PM 38.3481 -81.4811 287° West 269 310 20,000  Level Indianapolis Center
Wed 10:34:01 PM 38.3692 -81.5747 286° West 273 314 20,000  Level Indianapolis Center
Wed 10:35:02 PM 38.3886 -81.6689 285° West 274 315 20,000  Level Indianapolis Center
Wed 10:36:03 PM 38.4100 -81.7614 286° West 271 312 20,000  Level Indianapolis Center
Wed 10:37:04 PM 38.4303 -81.8531 286° West 268 308 20,000  Level Indianapolis Center
Wed 10:38:05 PM 38.4528 -81.9611 285° West 263 303 20,000  Level Indianapolis Center
Wed 10:39:07 PM 38.4739 -82.0522 287° West 266 306 20,000  Level Indianapolis Center
Wed 10:40:08 PM 38.4931 -82.1425 285° West 263 303 20,000  Level Indianapolis Center
Wed 10:41:09 PM 38.5111 -82.2314 285° West 258 297 20,000  Level Indianapolis Center
Wed 10:42:10 PM 38.5311 -82.3183 286° West 256 295 20,000  Level Indianapolis Center
Wed 10:43:11 PM 38.5494 -82.4064 285° West 255 293 20,000  Level Indianapolis Center
Wed 10:44:12 PM 38.5678 -82.4975 284° West 257 296 20,000  Level Indianapolis Center
Wed 10:45:14 PM 38.5869 -82.5878 285° West 261 300 20,000  Level Indianapolis Center
Wed 10:46:15 PM 38.6058 -82.6783 285° West 262 302 20,000  Level Indianapolis Center
Wed 10:47:16 PM 38.6261 -82.7694 286° West 264 304 20,000  Level Indianapolis Center
Wed 10:48:17 PM 38.6461 -82.8633 285° West 264 304 20,000  Level Indianapolis Center
Wed 10:49:18 PM 38.6628 -82.9511 284° West 265 305 20,000  Level Indianapolis Center
Wed 10:50:20 PM 38.6825 -83.0425 285° West 264 304 20,000  Level Indianapolis Center
Wed 10:51:21 PM 38.7053 -83.1533 285° West 268 308 20,000  Level Indianapolis Center
Wed 10:52:22 PM 38.7219 -83.2294 286° West 265 305 20,000  Level Indianapolis Center
Wed 10:53:23 PM 38.7453 -83.3394 285° West 266 306 20,000 -98 Level Indianapolis Center
Wed 10:54:25 PM 38.7636 -83.4306 284° West 265 305 19,800 -390 Descending Indianapolis Center
Wed 10:55:26 PM 38.7850 -83.5261 286° West 278 320 19,200 -639 Descending Indianapolis Center
Wed 10:56:27 PM 38.8017 -83.6256 282° West 285 328 18,500 -885 Descending Indianapolis Center
Wed 10:57:28 PM 38.8211 -83.7233 284° West 284 327 17,400 -976 Descending Indianapolis Center
Wed 10:58:30 PM 38.8433 -83.8236 286° West 290 334 16,500 -1,073 Descending Indianapolis Center
Wed 10:59:31 PM 38.8628 -83.9253 284° West 293 337 15,200 -1,230 Descending Indianapolis Center
Wed 11:00:32 PM 38.8825 -84.0264 284° West 292 336 14,000 -1,512 Descending Indianapolis Center
Wed 11:01:34 PM 38.9044 -84.1172 287° West 272 313 12,100 -1,805 Descending Indianapolis Center
Wed 11:02:35 PM 38.9214 -84.2072 284° West 262 302 10,300 -1,721 Descending Indianapolis Center
Wed 11:03:36 PM 38.9303 -84.2944 277° West 253 291 8,600 -1,967 Descending Indianapolis Center
Wed 11:04:37 PM 38.9442 -84.3956 280° West 243 280 6,300 -1,902 Descending Indianapolis Center
Wed 11:05:39 PM 38.9531 -84.4758 278° West 234 269 4,700 -927 Descending Indianapolis Center
Wed 11:06:40 PM 38.9617 -84.5542 278° West 232 267 4,400 -1,038 Descending Indianapolis Center
Wed 11:08:15 PM 38.9833 -84.6500 286° West 157 181 2,000 -1,516 Descending Cincinnati TRACON
Wed 11:10:00 PM 39.0333 -84.6667 270° West  Level FlightAware Approximate
Wed 11:17:00 PM 39.0488 -84.6678 270° West  Level Estimated

Login

Don't have an account? Register now (free) for customized features, flight alerts, and more!